createdAt,value
2018-11-21T00:00:45.607Z,98.90
2018-11-21T00:03:14.036Z,99.10
2018-11-21T00:05:42.498Z,99.30
2018-11-21T00:08:10.952Z,99.30
2018-11-21T00:10:39.360Z,99.40
2018-11-21T00:13:07.796Z,99.50
2018-11-21T00:15:36.210Z,99.50
2018-11-21T00:18:04.639Z,99.40
2018-11-21T00:20:33.120Z,99.20
2018-11-21T00:23:01.541Z,99.30
2018-11-21T00:25:30.148Z,99.30
2018-11-21T00:27:58.583Z,99.30
2018-11-21T00:30:27.083Z,99.40
2018-11-21T00:32:55.526Z,99.80
2018-11-21T00:35:24.008Z,99.40
2018-11-21T00:37:52.467Z,99.30
2018-11-21T00:40:20.923Z,99.20
2018-11-21T00:42:49.342Z,99.40
2018-11-21T00:45:17.791Z,99.30
2018-11-21T00:47:46.410Z,99.10
2018-11-21T00:50:14.857Z,98.90
2018-11-21T00:52:43.299Z,99.00
2018-11-21T00:55:11.717Z,99.10
2018-11-21T00:57:40.306Z,99.10
2018-11-21T01:00:10.418Z,99.00
2018-11-21T01:02:38.887Z,99.00
2018-11-21T01:05:07.612Z,99.00
2018-11-21T01:07:36.079Z,99.10
2018-11-21T01:10:04.522Z,99.20
2018-11-21T01:12:32.985Z,99.20
2018-11-21T01:15:01.433Z,99.30
2018-11-21T01:17:30.098Z,99.30
2018-11-21T01:19:58.534Z,99.30
2018-11-21T01:22:27.024Z,99.20
2018-11-21T01:24:55.415Z,99.00
2018-11-21T01:27:23.840Z,99.00
2018-11-21T01:29:52.330Z,99.00
2018-11-21T01:32:20.768Z,99.10
2018-11-21T01:34:49.182Z,99.00
2018-11-21T01:37:17.688Z,99.10
2018-11-21T01:39:46.106Z,98.90
2018-11-21T01:42:14.564Z,98.80
2018-11-21T01:44:43.052Z,98.70
2018-11-21T01:47:11.458Z,98.80
2018-11-21T01:49:39.923Z,98.80
2018-11-21T01:52:08.352Z,98.80
2018-11-21T01:54:36.778Z,98.90
2018-11-21T01:57:05.591Z,98.70
2018-11-21T01:59:34.034Z,98.50
2018-11-21T02:02:02.632Z,98.40
2018-11-21T02:04:31.019Z,98.60
2018-11-21T02:06:59.467Z,98.30
2018-11-21T02:09:27.905Z,98.50
2018-11-21T02:11:56.333Z,98.70
2018-11-21T02:14:24.811Z,98.70
2018-11-21T02:16:53.319Z,98.90
2018-11-21T02:19:21.732Z,98.80
2018-11-21T02:21:50.151Z,99.20
2018-11-21T02:24:18.576Z,98.70
2018-11-21T02:26:47.121Z,98.80
2018-11-21T02:29:15.569Z,98.80
2018-11-21T02:31:44.013Z,98.50
2018-11-21T02:34:12.733Z,98.50
2018-11-21T02:36:41.171Z,98.60
2018-11-21T02:39:10.638Z,98.80
2018-11-21T02:41:39.077Z,98.70
2018-11-21T02:44:07.576Z,98.50
2018-11-21T02:46:36.053Z,98.40
2018-11-21T02:49:04.750Z,98.30
2018-11-21T02:51:33.374Z,98.30
2018-11-21T02:54:01.796Z,98.20
2018-11-21T02:57:07.310Z,98.40
2018-11-21T02:59:35.770Z,98.50
2018-11-21T03:02:04.355Z,98.60
2018-11-21T03:04:32.814Z,98.70
2018-11-21T03:07:01.280Z,98.80
2018-11-21T03:09:29.720Z,98.80
2018-11-21T03:11:58.176Z,98.70
2018-11-21T03:14:27.109Z,98.70
2018-11-21T03:16:57.765Z,98.40
2018-11-21T03:19:26.478Z,98.20
2018-11-21T03:21:54.971Z,98.10
2018-11-21T03:24:23.438Z,98.40
2018-11-21T03:26:52.446Z,98.30
2018-11-21T03:29:21.193Z,98.20
2018-11-21T03:31:49.607Z,98.10
2018-11-21T03:34:18.045Z,98.00
2018-11-21T03:36:50.707Z,98.00
2018-11-21T03:39:20.748Z,98.00
2018-11-21T03:41:49.184Z,98.00
2018-11-21T03:44:17.647Z,98.10
2018-11-21T03:46:47.304Z,98.50
2018-11-21T03:49:18.487Z,98.80
2018-11-21T03:51:46.991Z,98.70
2018-11-21T03:54:15.493Z,98.60
2018-11-21T03:56:43.857Z,98.60
2018-11-21T03:59:12.590Z,98.70
2018-11-21T04:01:41.207Z,98.70
2018-11-21T04:04:10.010Z,98.90
2018-11-21T04:06:38.450Z,99.10
2018-11-21T04:09:11.480Z,99.20
2018-11-21T04:11:39.845Z,99.20
2018-11-21T04:14:08.871Z,99.30
2018-11-21T04:16:37.392Z,99.30
2018-11-21T04:19:05.872Z,99.50
2018-11-21T04:21:34.575Z,99.50
2018-11-21T04:24:02.983Z,99.50
2018-11-21T04:26:31.462Z,99.40
2018-11-21T04:28:59.938Z,99.40
2018-11-21T04:31:28.386Z,99.40
2018-11-21T04:33:56.816Z,99.30
2018-11-21T04:36:25.266Z,99.30
2018-11-21T04:38:53.727Z,99.20
2018-11-21T04:41:22.108Z,99.10
2018-11-21T04:43:50.605Z,99.10
2018-11-21T04:46:19.030Z,99.10
2018-11-21T04:48:47.450Z,98.90
2018-11-21T04:51:15.907Z,98.90
2018-11-21T04:53:44.374Z,98.90
2018-11-21T04:56:12.805Z,98.80
2018-11-21T04:58:41.266Z,98.80
2018-11-21T05:01:09.682Z,98.90
2018-11-21T05:03:38.117Z,98.90
2018-11-21T05:06:06.865Z,98.90
2018-11-21T05:08:35.307Z,99.30
2018-11-21T05:11:03.725Z,99.10
2018-11-21T05:13:32.415Z,99.10
2018-11-21T05:16:00.819Z,99.10
2018-11-21T05:18:29.267Z,99.00
2018-11-21T05:20:57.769Z,99.00
2018-11-21T05:23:26.181Z,99.20
2018-11-21T05:25:54.937Z,99.40
2018-11-21T05:28:23.403Z,99.50
2018-11-21T05:30:51.828Z,99.50
2018-11-21T05:33:20.244Z,99.50
2018-11-21T05:35:48.752Z,99.60
2018-11-21T05:38:17.184Z,99.50
2018-11-21T05:40:45.614Z,99.50
2018-11-21T05:43:14.107Z,99.40
2018-11-21T05:45:42.543Z,99.50
2018-11-21T05:48:10.996Z,99.50
2018-11-21T05:50:39.400Z,99.50
2018-11-21T05:53:08.167Z,99.40
2018-11-21T05:55:36.624Z,99.50
2018-11-21T05:58:05.374Z,99.50
2018-11-21T06:00:33.774Z,99.50
2018-11-21T06:03:02.207Z,99.50
2018-11-21T06:05:33.620Z,99.40
2018-11-21T06:08:02.033Z,99.40
2018-11-21T06:10:34.051Z,99.30
2018-11-21T06:13:06.863Z,99.40
2018-11-21T06:15:35.404Z,99.90
2018-11-21T06:20:57.065Z,99.40
2018-11-21T06:23:25.647Z,99.50
2018-11-21T06:25:54.111Z,99.50
2018-11-21T06:28:22.621Z,99.60
2018-11-21T06:30:51.109Z,99.70
2018-11-21T06:33:19.543Z,99.60
2018-11-21T06:35:48.028Z,99.60
2018-11-21T06:38:16.480Z,99.60
2018-11-21T06:40:44.943Z,99.60
2018-11-21T06:43:13.409Z,99.70
2018-11-21T06:45:41.863Z,99.70
2018-11-21T06:48:10.316Z,99.80
2018-11-21T06:50:39.087Z,99.70
2018-11-21T06:53:07.704Z,99.50
2018-11-21T06:55:36.142Z,99.50
2018-11-21T06:58:04.632Z,99.50
2018-11-21T07:00:33.059Z,99.40
2018-11-21T07:03:01.501Z,99.40
2018-11-21T07:05:29.984Z,99.60
2018-11-21T07:08:01.722Z,99.80
2018-11-21T07:10:30.390Z,99.90
2018-11-21T07:12:58.859Z,99.90
2018-11-21T07:15:27.280Z,99.90
2018-11-21T07:17:55.714Z,99.90
2018-11-21T07:20:24.172Z,99.90
2018-11-21T07:22:52.705Z,99.90
2018-11-21T07:25:22.694Z,99.90
2018-11-21T07:27:51.118Z,99.90
2018-11-21T07:30:19.919Z,99.90
2018-11-21T07:32:48.340Z,99.90
2018-11-21T07:35:18.148Z,99.80
2018-11-21T07:37:45.972Z,99.70
2018-11-21T07:40:15.284Z,99.40
2018-11-21T07:42:43.906Z,99.40
2018-11-21T07:45:13.884Z,99.10
2018-11-21T07:47:42.964Z,99.00
2018-11-21T07:50:17.265Z,98.70
2018-11-21T07:52:45.686Z,98.50
2018-11-21T07:55:14.435Z,98.70
2018-11-21T07:57:47.155Z,98.10
2018-11-21T08:01:17.605Z,98.10
2018-11-21T08:04:14.454Z,98.20
2018-11-21T08:06:48.852Z,97.90
2018-11-21T08:09:35.275Z,97.50
2018-11-21T08:12:21.309Z,97.70
2018-11-21T08:15:19.471Z,97.40
2018-11-21T08:18:09.798Z,96.40
2018-11-21T08:21:12.717Z,96.50
2018-11-21T08:24:15.533Z,96.70
2018-11-21T08:27:05.794Z,96.30
2018-11-21T08:29:34.423Z,96.60
2018-11-21T08:32:04.332Z,96.00
2018-11-21T08:34:32.770Z,95.70
2018-11-21T08:37:01.386Z,96.20
2018-11-21T08:39:29.818Z,96.10
2018-11-21T08:41:58.268Z,95.90
2018-11-21T08:44:26.722Z,95.80
2018-11-21T08:46:55.128Z,95.80
2018-11-21T08:49:23.598Z,95.90
2018-11-21T08:51:52.055Z,95.70
2018-11-21T08:54:20.487Z,95.70
2018-11-21T08:56:48.941Z,96.00
2018-11-21T08:59:17.544Z,96.00
2018-11-21T09:01:46.015Z,95.90
2018-11-21T09:04:14.820Z,96.10
2018-11-21T09:06:43.255Z,96.30
2018-11-21T09:09:11.702Z,96.20
2018-11-21T09:11:40.182Z,96.20
2018-11-21T09:14:08.612Z,96.20
2018-11-21T09:16:37.095Z,96.10
2018-11-21T09:19:05.624Z,96.00
2018-11-21T09:21:34.077Z,95.90
2018-11-21T09:24:02.553Z,95.90
2018-11-21T09:26:31.385Z,96.20
2018-11-21T09:28:59.835Z,96.10
2018-11-21T09:31:28.357Z,96.10
2018-11-21T09:33:56.868Z,96.10
2018-11-21T09:36:25.389Z,96.10
2018-11-21T09:38:53.770Z,96.20
2018-11-21T09:41:22.253Z,95.80
2018-11-21T09:43:50.846Z,96.00
2018-11-21T09:46:19.277Z,96.30
2018-11-21T09:48:47.759Z,96.50
2018-11-21T09:51:16.209Z,96.70
2018-11-21T09:53:44.655Z,96.60
2018-11-21T09:56:13.145Z,96.60
2018-11-21T09:58:41.575Z,96.10
2018-11-21T10:01:46.814Z,96.10
2018-11-21T10:04:16.686Z,96.00
2018-11-21T10:06:45.904Z,96.00
2018-11-21T10:09:16.743Z,96.00
2018-11-21T10:11:45.173Z,95.90
2018-11-21T10:14:13.711Z,95.70
2018-11-21T10:16:42.362Z,95.90
2018-11-21T10:19:10.782Z,95.70
2018-11-21T10:21:39.342Z,95.90
2018-11-21T10:24:07.786Z,95.40
2018-11-21T10:26:36.228Z,95.60
2018-11-21T10:29:05.188Z,95.60
2018-11-21T10:31:33.618Z,95.50
2018-11-21T10:34:02.062Z,95.50
2018-11-21T10:36:30.490Z,95.20
2018-11-21T10:38:58.922Z,95.10
2018-11-21T10:41:27.382Z,95.40
2018-11-21T10:43:55.796Z,95.10
2018-11-21T10:46:24.208Z,94.70
2018-11-21T10:48:52.768Z,94.80
2018-11-21T10:51:21.232Z,94.70
2018-11-21T10:53:50.832Z,94.60
2018-11-21T10:56:19.283Z,94.50
2018-11-21T10:58:47.703Z,94.60
2018-11-21T11:01:34.157Z,94.90
2018-11-21T11:04:09.243Z,94.80
2018-11-21T11:07:02.629Z,94.70
2018-11-21T11:09:49.132Z,94.50
2018-11-21T11:12:35.654Z,94.10
2018-11-21T11:15:35.368Z,94.10
2018-11-21T11:18:21.699Z,94.40
2018-11-21T11:21:18.291Z,94.30
2018-11-21T11:23:59.335Z,94.20
2018-11-21T11:26:55.965Z,94.30
2018-11-21T11:29:52.553Z,94.00
2018-11-21T11:32:55.317Z,94.10
2018-11-21T11:35:45.515Z,94.40
2018-11-21T11:38:39.029Z,94.10
2018-11-21T11:41:41.883Z,94.00
2018-11-21T11:44:28.123Z,94.00
2018-11-21T11:47:24.949Z,94.10
2018-11-21T11:50:10.466Z,94.00
2018-11-21T11:53:00.838Z,93.70
2018-11-21T11:55:47.338Z,93.60
2018-11-21T11:58:28.334Z,93.60
2018-11-21T12:01:14.766Z,93.30
2018-11-21T12:04:00.968Z,93.20
2018-11-21T12:06:41.138Z,93.40
2018-11-21T12:09:46.880Z,93.40
2018-11-21T12:12:44.063Z,93.60
2018-11-21T12:15:30.262Z,93.60
2018-11-21T12:18:20.621Z,93.20
2018-11-21T12:21:03.202Z,93.20
2018-11-21T12:23:49.466Z,93.30
2018-11-21T12:26:33.968Z,93.10
2018-11-21T12:29:41.797Z,92.80
2018-11-21T12:32:27.157Z,92.60
2018-11-21T12:35:14.818Z,92.10
2018-11-21T12:38:14.543Z,92.00
2018-11-21T12:41:10.853Z,91.90
2018-11-21T12:44:10.523Z,91.80
2018-11-21T12:46:56.570Z,92.10
2018-11-21T12:49:53.776Z,92.40
2018-11-21T12:52:42.605Z,92.90
2018-11-21T12:55:45.517Z,93.00
2018-11-21T12:58:31.965Z,92.80
2018-11-21T13:01:25.292Z,93.00
2018-11-21T13:03:59.152Z,92.70
2018-11-21T13:06:52.769Z,92.60
2018-11-21T13:09:43.259Z,92.60
2018-11-21T13:12:30.901Z,92.60
2018-11-21T13:15:24.291Z,92.40
2018-11-21T13:18:46.677Z,92.40
2018-11-21T13:21:42.778Z,92.60
2018-11-21T13:24:28.840Z,92.30
2018-11-21T13:27:29.245Z,92.20
2018-11-21T13:30:32.015Z,92.40
2018-11-21T13:33:19.819Z,92.00
2018-11-21T13:36:12.727Z,92.10
2018-11-21T13:38:59.319Z,92.00
2018-11-21T13:42:02.178Z,92.00
2018-11-21T13:44:49.746Z,92.00
2018-11-21T13:47:40.175Z,92.30
2018-11-21T13:50:43.476Z,91.50
2018-11-21T13:53:43.168Z,91.50
2018-11-21T13:56:11.648Z,92.10
2018-11-21T13:58:41.230Z,92.10
2018-11-21T14:01:09.932Z,92.20
2018-11-21T14:03:38.542Z,92.40
2018-11-21T14:06:07.042Z,92.70
2018-11-21T14:08:35.630Z,92.60
2018-11-21T14:11:04.312Z,92.60
2018-11-21T14:13:32.776Z,92.50
2018-11-21T14:16:01.414Z,92.30
2018-11-21T14:18:30.213Z,92.00
2018-11-21T14:20:58.788Z,92.00
2018-11-21T14:23:27.231Z,92.10
2018-11-21T14:25:55.710Z,92.00
2018-11-21T14:28:24.155Z,92.20
2018-11-21T14:30:52.753Z,92.30
2018-11-21T14:33:21.193Z,92.40
2018-11-21T14:35:52.301Z,92.30
2018-11-21T14:38:18.193Z,92.40
2018-11-21T14:40:46.861Z,92.30
2018-11-21T14:43:15.271Z,92.20
2018-11-21T14:45:43.745Z,92.50
2018-11-21T14:48:12.185Z,92.20
2018-11-21T14:50:41.111Z,92.20
2018-11-21T14:53:09.573Z,92.50
2018-11-21T14:55:38.201Z,92.60
2018-11-21T14:58:06.677Z,92.70
2018-11-21T15:00:35.190Z,92.70
2018-11-21T15:03:21.678Z,92.70
2018-11-21T15:05:43.734Z,92.70
2018-11-21T15:08:13.087Z,93.00
2018-11-21T15:10:41.508Z,93.10
2018-11-21T15:13:10.010Z,93.10
2018-11-21T15:15:38.444Z,93.20
2018-11-21T15:18:07.060Z,93.60
2018-11-21T15:20:35.552Z,93.40
2018-11-21T15:23:04.036Z,93.50
2018-11-21T15:25:32.468Z,93.50
2018-11-21T15:28:00.888Z,93.50
2018-11-21T15:30:30.497Z,93.60
2018-11-21T15:32:59.576Z,93.60
2018-11-21T15:35:27.986Z,93.70
2018-11-21T15:37:56.454Z,93.90
2018-11-21T15:40:27.349Z,93.90
2018-11-21T15:42:55.964Z,94.10
2018-11-21T15:45:27.016Z,94.10
2018-11-21T15:47:57.172Z,94.20
2018-11-21T15:50:25.925Z,94.30
2018-11-21T15:52:54.419Z,94.40
2018-11-21T15:55:23.005Z,94.20
2018-11-21T15:57:51.483Z,94.10
2018-11-21T16:00:24.756Z,94.10
2018-11-21T16:02:55.121Z,94.20
2018-11-21T16:05:23.872Z,94.30
2018-11-21T16:07:52.319Z,94.10
2018-11-21T16:10:22.813Z,94.30
2018-11-21T16:12:51.248Z,94.40
2018-11-21T16:15:22.709Z,94.40
2018-11-21T16:17:51.191Z,94.30
2018-11-21T16:20:19.984Z,94.40
2018-11-21T16:22:48.382Z,94.80
2018-11-21T16:25:18.218Z,94.80
2018-11-21T16:27:46.773Z,94.90
2018-11-21T16:30:16.995Z,94.90
2018-11-21T16:32:45.922Z,94.60
2018-11-21T16:35:14.909Z,94.50
2018-11-21T16:37:43.730Z,94.40
2018-11-21T16:40:15.211Z,94.60
2018-11-21T16:42:43.903Z,94.40
2018-11-21T16:45:14.382Z,94.40
2018-11-21T16:47:42.902Z,94.50
2018-11-21T16:50:13.891Z,94.60
2018-11-21T16:52:42.431Z,94.50
2018-11-21T16:55:12.822Z,94.40
2018-11-21T16:57:41.671Z,94.10
2018-11-21T17:00:12.846Z,94.20
2018-11-21T17:02:41.285Z,94.50
2018-11-21T17:05:11.366Z,94.70
2018-11-21T17:07:40.231Z,94.60
2018-11-21T17:10:13.822Z,94.60
2018-11-21T17:12:42.775Z,94.60
2018-11-21T17:15:13.471Z,94.60
2018-11-21T17:17:42.276Z,94.50
2018-11-21T17:20:16.402Z,94.60
2018-11-21T17:22:45.973Z,94.70
2018-11-21T17:25:15.995Z,94.70
2018-11-21T17:27:45.041Z,95.00
2018-11-21T17:30:14.933Z,95.00
2018-11-21T17:32:43.565Z,94.90
2018-11-21T17:35:13.333Z,95.00
2018-11-21T17:37:41.873Z,94.90
2018-11-21T17:40:18.906Z,94.90
2018-11-21T17:42:47.466Z,94.90
2018-11-21T17:45:16.631Z,94.90
2018-11-21T17:47:45.163Z,94.90
2018-11-21T17:50:15.308Z,95.10
2018-11-21T17:52:44.149Z,95.00
2018-11-21T17:55:14.076Z,94.80
2018-11-21T17:57:42.556Z,94.80
2018-11-21T18:00:13.102Z,95.00
2018-11-21T18:02:41.644Z,95.00
2018-11-21T18:05:11.053Z,94.60
2018-11-21T18:07:39.523Z,94.80
2018-11-21T18:10:13.468Z,94.80
2018-11-21T18:12:42.113Z,94.30
2018-11-21T18:15:11.551Z,94.10
2018-11-21T18:17:40.586Z,94.30
2018-11-21T18:20:10.264Z,94.40
2018-11-21T18:22:38.951Z,94.40
2018-11-21T18:25:10.216Z,94.20
2018-11-21T18:27:38.674Z,94.20
2018-11-21T18:30:10.514Z,94.30
2018-11-21T18:32:39.439Z,94.40
2018-11-21T18:35:09.103Z,94.30
2018-11-21T18:37:37.590Z,94.20
2018-11-21T18:40:09.206Z,94.30
2018-11-21T18:42:37.656Z,94.40
2018-11-21T18:45:09.331Z,94.40
2018-11-21T18:47:37.981Z,94.30
2018-11-21T18:50:11.205Z,94.40
2018-11-21T18:52:37.503Z,94.40
2018-11-21T18:55:08.870Z,94.80
2018-11-21T18:57:59.287Z,94.90
2018-11-21T19:00:30.686Z,95.00
2018-11-21T19:03:01.753Z,94.90
2018-11-21T19:05:30.167Z,95.00
2018-11-21T19:07:58.723Z,95.20
2018-11-21T19:10:27.279Z,95.20
2018-11-21T19:12:55.713Z,95.10
2018-11-21T19:15:24.161Z,95.70
2018-11-21T19:17:52.637Z,95.50
2018-11-21T19:20:24.163Z,95.50
2018-11-21T19:22:52.865Z,95.50
2018-11-21T19:25:21.403Z,95.80
2018-11-21T19:27:49.845Z,96.00
2018-11-21T19:30:19.232Z,96.00
2018-11-21T19:32:47.728Z,96.10
2018-11-21T19:35:16.184Z,96.20
2018-11-21T19:37:44.665Z,96.30
2018-11-21T19:40:14.261Z,96.50
2018-11-21T19:42:42.746Z,96.80
2018-11-21T19:45:13.008Z,96.60
2018-11-21T19:47:41.672Z,96.60
2018-11-21T19:50:12.346Z,96.70
2018-11-21T19:52:41.811Z,96.60
2018-11-21T19:55:12.628Z,96.50
2018-11-21T19:57:41.810Z,96.50
2018-11-21T20:00:12.749Z,96.50
2018-11-21T20:02:41.216Z,96.50
2018-11-21T20:05:09.680Z,96.60
2018-11-21T20:07:38.940Z,96.50
2018-11-21T20:10:08.475Z,96.50
2018-11-21T20:12:40.034Z,96.20
